Time;durP1;ratioP1;P1;durP2;ratioP2;P2;SDS_P1;SDS_P2;PMS_P1;PMS_P2;Temp;Humidity;BMP_temperature;BMP_pressure;BME280_temperature;BME280_humidity;BME280_pressure;Samples;Min_cycle;Max_cycle;Signal;HPM_P1;HPM_P2
2023/01/01 00:00:42;;;;;;;117.18;102.07;;;13.10;98.20;;;11.02;100.00;100663.31;4987619;28;20077;-70
2023/01/01 00:03:09;;;;;;;143.65;125.28;;;12.70;98.10;;;10.86;100.00;100669.78;5004051;28;20577;-70
2023/01/01 00:05:39;;;;;;;142.82;120.55;;;12.10;98.20;;;10.73;100.00;100671.78;4988912;28;20053;-71
2023/01/01 00:08:07;;;;;;;140.75;118.63;;;12.10;98.40;;;10.62;100.00;100667.59;5003406;28;20046;-70
2023/01/01 00:10:33;;;;;;;136.70;114.32;;;12.10;98.30;;;10.65;100.00;100666.66;5003618;28;20132;-70
2023/01/01 00:13:00;;;;;;;123.97;110.57;;;11.90;98.30;;;10.60;100.00;100661.47;5007046;28;20034;-70
2023/01/01 00:15:28;;;;;;;141.77;123.13;;;11.90;98.30;;;10.62;100.00;100664.09;4990997;28;20081;-70
2023/01/01 00:17:56;;;;;;;162.52;141.43;;;11.80;98.40;;;10.53;100.00;100675.66;5007190;28;20129;-70
2023/01/01 00:20:23;;;;;;;174.30;153.35;;;11.80;98.50;;;10.31;100.00;100676.03;5023097;28;20413;-70
2023/01/01 00:22:55;;;;;;;182.90;157.82;;;11.70;98.70;;;10.26;100.00;100674.38;5007062;28;20128;-70
2023/01/01 00:25:23;;;;;;;175.98;152.40;;;11.60;98.90;;;10.35;100.00;100682.09;4990783;28;20052;-70
2023/01/01 00:27:51;;;;;;;205.07;181.32;;;11.60;99.20;;;10.25;100.00;100680.53;5007054;28;20445;-70
2023/01/01 00:30:18;;;;;;;203.52;181.15;;;11.50;99.20;;;10.26;100.00;100679.66;4987471;28;20101;-70
2023/01/01 00:32:45;;;;;;;199.88;177.52;;;11.70;99.20;;;10.32;100.00;100685.66;4987270;28;20062;-70
2023/01/01 00:35:20;;;;;;;199.13;177.18;;;11.70;99.00;;;10.31;100.00;100680.41;5002287;28;20046;-70
2023/01/01 00:37:50;;;;;;;176.75;150.40;;;11.50;98.90;;;10.21;100.00;100677.94;4987092;28;20051;-70
2023/01/01 00:40:18;;;;;;;155.48;135.63;;;11.50;98.90;;;9.99;100.00;100680.09;4987188;28;20054;-70
2023/01/01 00:42:45;;;;;;;154.85;133.55;;;12.20;99.30;;;9.92;100.00;100695.09;5010594;28;20057;-70
2023/01/01 00:45:12;;;;;;;152.75;132.13;;;11.60;99.30;;;9.89;100.00;100689.88;5010087;28;20096;-70
2023/01/01 00:47:52;;;;;;;150.25;124.30;;;11.30;99.20;;;9.87;100.00;100689.03;5026541;28;20666;-70
2023/01/01 00:50:20;;;;;;;148.05;129.70;;;11.20;99.10;;;9.95;100.00;100682.78;5043576;28;20041;-70
2023/01/01 00:52:48;;;;;;;149.85;128.90;;;11.50;99.20;;;9.83;100.00;100683.84;5013864;28;20033;-70
2023/01/01 00:55:16;;;;;;;139.48;123.05;;;11.20;99.20;;;9.99;100.00;100682.72;5030266;28;20494;-72
2023/01/01 00:57:43;;;;;;;143.13;122.35;;;11.10;99.20;;;9.98;100.00;100688.84;5046630;28;20088;-70
2023/01/01 01:00:12;;;;;;;140.40;115.78;;;11.10;99.20;;;9.80;100.00;100682.16;5020685;28;20057;-71
2023/01/01 01:02:39;;;;;;;155.73;125.10;;;11.10;99.10;;;9.78;100.00;100686.56;5010111;28;20121;-70
2023/01/01 01:05:07;;;;;;;135.15;107.97;;;11.10;99.20;;;9.77;100.00;100695.34;4994377;28;20489;-70
2023/01/01 01:07:36;;;;;;;131.18;112.07;;;11.00;99.20;;;9.65;100.00;100686.75;5012140;28;20073;-70
2023/01/01 01:10:04;;;;;;;110.30;93.10;;;11.00;99.30;;;9.57;100.00;100687.75;4994413;28;20045;-71
2023/01/01 01:12:33;;;;;;;107.25;92.07;;;10.90;99.30;;;9.64;100.00;100692.00;5010186;28;20041;-70
2023/01/01 01:15:02;;;;;;;100.30;82.88;;;10.80;99.30;;;9.48;100.00;100694.00;5010293;28;20080;-70
2023/01/01 01:17:29;;;;;;;101.72;88.88;;;10.80;99.50;;;9.38;100.00;100695.00;5009983;28;20054;-70
2023/01/01 01:19:56;;;;;;;95.85;83.63;;;10.70;99.50;;;9.27;100.00;100692.53;4993605;28;20114;-70
2023/01/01 01:22:24;;;;;;;84.57;74.68;;;10.90;99.70;;;9.48;100.00;100694.00;5009941;28;20108;-70
2023/01/01 01:24:55;;;;;;;91.90;79.35;;;10.70;99.70;;;9.34;100.00;100695.06;4995146;28;20064;-70
2023/01/01 01:27:23;;;;;;;80.75;68.75;;;10.70;99.60;;;9.27;100.00;100696.03;5009560;28;20571;-69
2023/01/01 01:29:50;;;;;;;98.55;83.03;;;10.60;99.40;;;9.15;100.00;100699.69;4993285;28;20096;-70
2023/01/01 01:32:18;;;;;;;94.03;80.18;;;10.50;99.40;;;9.13;100.00;100701.47;4994075;28;20041;-70
2023/01/01 01:34:46;;;;;;;90.07;75.38;;;10.50;99.50;;;9.13;100.00;100709.34;5025690;28;20048;-70
2023/01/01 01:37:14;;;;;;;80.78;71.35;;;10.50;99.40;;;9.04;100.00;100712.06;5025902;28;20161;-70
2023/01/01 01:39:41;;;;;;;87.85;74.95;;;10.40;99.40;;;8.98;100.00;100713.03;4992921;28;20045;-70
2023/01/01 01:42:16;;;;;;;81.63;72.43;;;10.40;99.50;;;9.07;100.00;100723.41;5011082;28;20046;-70
2023/01/01 01:44:48;;;;;;;100.90;81.47;;;10.30;99.60;;;9.12;100.00;100725.09;4991545;28;20132;-70
2023/01/01 01:47:41;;;;;;;80.93;68.75;;;10.50;99.90;;;9.35;100.00;100730.06;4993099;28;20038;-70
2023/01/01 01:50:31;;;;;;;78.97;63.15;;;10.40;99.90;;;9.53;100.00;100735.97;4975814;28;20053;-70
2023/01/01 01:53:25;;;;;;;73.43;62.22;;;10.50;99.90;;;9.56;100.00;100723.66;4999809;28;20105;-70
2023/01/01 01:56:09;;;;;;;73.70;60.83;;;10.60;99.90;;;9.46;100.00;100722.91;4994957;28;20050;-69
2023/01/01 01:58:36;;;;;;;75.53;61.90;;;10.60;99.80;;;9.55;100.00;100724.53;4979574;28;20052;-70
2023/01/01 02:01:04;;;;;;;75.18;62.35;;;10.70;99.50;;;9.35;100.00;100720.44;4994845;28;20060;-70
2023/01/01 02:03:50;;;;;;;75.13;59.97;;;10.60;99.40;;;9.36;100.00;100723.91;5013792;28;20050;-70
2023/01/01 02:06:18;;;;;;;71.47;57.83;;;10.60;99.40;;;9.29;100.00;100717.91;5014863;28;20502;-69
2023/01/01 02:08:47;;;;;;;66.60;53.00;;;10.50;99.50;;;9.20;100.00;100710.13;5014484;28;20045;-70
2023/01/01 02:11:17;;;;;;;75.22;55.85;;;10.50;99.70;;;9.18;100.00;100712.75;5014079;28;20104;-70
2023/01/01 02:13:49;;;;;;;67.80;52.88;;;10.40;99.50;;;9.11;100.00;100711.13;5012965;28;20060;-70
2023/01/01 02:16:24;;;;;;;68.38;50.03;;;10.40;99.70;;;9.11;100.00;100707.63;5013513;28;20050;-70
2023/01/01 02:19:23;;;;;;;60.33;46.05;;;10.40;99.50;;;9.08;100.00;100709.38;5013388;28;20067;-70
2023/01/01 02:22:23;;;;;;;53.87;41.93;;;10.40;99.70;;;9.29;100.00;100717.91;5028004;28;20125;-70
2023/01/01 02:25:17;;;;;;;35.00;23.63;;;10.40;99.70;;;9.85;100.00;100709.22;5009374;28;20053;-70
2023/01/01 02:28:22;;;;;;;25.08;20.75;;;10.60;99.90;;;10.18;100.00;100706.06;4994467;28;20049;-70
2023/01/01 02:30:51;;;;;;;21.20;17.73;;;10.70;99.90;;;10.31;100.00;100691.81;5009830;28;20042;-70
2023/01/01 02:33:24;;;;;;;23.77;18.73;;;11.00;99.90;;;10.40;100.00;100696.06;4992519;28;20208;-70
2023/01/01 02:36:00;;;;;;;22.50;16.52;;;11.10;99.90;;;10.51;100.00;100695.88;5008634;28;20140;-69
2023/01/01 02:38:42;;;;;;;21.05;16.13;;;11.20;99.60;;;10.51;100.00;100701.13;5008818;28;20057;-70
2023/01/01 02:41:29;;;;;;;21.75;15.52;;;11.40;99.50;;;10.50;100.00;100708.16;5008457;28;20073;-69
2023/01/01 02:43:56;;;;;;;17.10;15.18;;;11.30;99.50;;;10.56;100.00;100696.66;5006993;28;20049;-69
2023/01/01 02:46:22;;;;;;;16.25;13.13;;;11.40;99.40;;;10.59;100.00;100696.59;5011307;28;20083;-70
2023/01/01 02:48:52;;;;;;;17.45;12.88;;;11.40;99.40;;;10.55;100.00;100692.28;5011397;28;20128;-70
2023/01/01 02:51:33;;;;;;;29.23;21.67;;;11.40;99.20;;;10.27;100.00;100697.16;5029128;28;20073;-70
2023/01/01 02:54:16;;;;;;;14.93;12.38;;;11.40;99.20;;;10.46;100.00;100700.38;5029554;28;20046;-70
2023/01/01 02:56:57;;;;;;;15.68;12.70;;;11.40;99.40;;;10.57;100.00;100700.16;5044716;28;20459;-70
2023/01/01 03:03:29;;;;;;;14.52;10.23;;;12.20;99.60;;;10.89;100.00;100696.88;5008018;28;20673;-70
2023/01/01 03:06:25;;;;;;;11.93;9.50;;;11.70;99.20;;;10.99;100.00;100700.19;5012465;28;20077;-70
2023/01/01 03:09:13;;;;;;;13.48;9.52;;;11.80;99.10;;;11.06;100.00;100699.19;5009432;28;20053;-70
2023/01/01 03:12:09;;;;;;;12.57;9.32;;;11.80;99.00;;;11.13;100.00;100702.56;5024572;28;20045;-70
2023/01/01 03:14:50;;;;;;;10.50;8.23;;;11.90;98.90;;;11.12;100.00;100703.47;5025721;28;20557;-69
2023/01/01 03:17:44;;;;;;;11.48;8.45;;;11.90;98.80;;;11.14;100.00;100704.28;5043934;28;20049;-70
2023/01/01 03:20:21;;;;;;;11.85;8.75;;;12.20;98.90;;;11.23;100.00;100699.72;5027065;28;20160;-70
2023/01/01 03:22:51;;;;;;;10.80;8.10;;;12.00;98.70;;;11.19;100.00;100696.31;5026884;28;20045;-71
2023/01/01 03:25:31;;;;;;;11.77;9.35;;;12.00;98.80;;;11.21;100.00;100702.41;5011237;28;20065;-71
2023/01/01 03:28:09;;;;;;;13.35;9.27;;;12.10;98.60;;;11.24;100.00;100699.69;5028269;28;20053;-71
2023/01/01 03:30:40;;;;;;;10.50;8.48;;;12.10;98.50;;;11.28;100.00;100697.88;4996218;28;20058;-71
2023/01/01 03:33:43;;;;;;;9.50;8.20;;;12.10;98.50;;;11.18;100.00;100703.31;5003662;28;20042;-72
2023/01/01 03:36:23;;;;;;;11.02;8.25;;;12.10;98.40;;;11.26;100.00;100694.41;4991795;28;20062;-72
2023/01/01 03:39:16;;;;;;;9.30;7.18;;;12.10;98.50;;;11.25;100.00;100701.44;4987249;28;20068;-70
2023/01/01 03:42:27;;;;;;;9.23;7.65;;;12.10;98.50;;;11.17;100.00;100695.47;5024245;28;20184;-71
2023/01/01 03:45:03;;;;;;;10.73;8.77;;;12.10;98.50;;;10.94;100.00;100696.81;5003951;28;20050;-72
2023/01/01 03:47:31;;;;;;;8.70;7.00;;;12.00;98.50;;;10.92;100.00;100706.50;4990148;28;20110;-72
2023/01/01 03:49:59;;;;;;;9.50;7.03;;;11.90;98.50;;;10.72;100.00;100705.13;4987363;28;20039;-72
2023/01/01 03:52:44;;;;;;;8.75;6.93;;;11.90;98.50;;;10.58;100.00;100709.78;4971910;28;20062;-72
2023/01/01 03:55:34;;;;;;;9.63;7.25;;;11.80;98.50;;;10.33;100.00;100710.19;4971186;28;20712;-72
2023/01/01 03:58:13;;;;;;;11.73;10.05;;;11.60;98.20;;;10.13;100.00;100718.41;4972211;28;20557;-71
2023/01/01 04:01:03;;;;;;;13.27;8.95;;;11.50;98.60;;;10.04;100.00;100719.44;4991195;28;20541;-71
2023/01/01 04:03:32;;;;;;;10.43;9.05;;;11.40;98.70;;;9.91;100.00;100711.75;5008151;28;20046;-71
2023/01/01 04:06:01;;;;;;;12.53;9.73;;;11.20;98.70;;;9.75;100.00;100720.75;5007004;28;20113;-72
2023/01/01 04:08:30;;;;;;;13.05;9.25;;;11.60;99.10;;;9.69;100.00;100728.72;5006679;28;20053;-71
2023/01/01 04:12:00;;;;;;;11.07;9.38;;;11.80;99.30;;;9.59;100.00;100725.38;5023302;28;20049;-71
2023/01/01 04:13:49;;;;;;;11.32;9.57;;;11.20;99.30;;;9.43;100.00;100727.31;5012833;28;20052;-71
2023/01/01 04:16:17;;;;;;;13.60;11.98;;;10.80;99.30;;;9.30;100.00;100735.41;5007259;28;20099;-71
2023/01/01 04:18:44;;;;;;;12.73;11.32;;;10.70;99.30;;;9.12;100.00;100727.72;5007105;28;20053;-71
2023/01/01 04:21:11;;;;;;;15.07;12.75;;;10.60;99.40;;;9.11;100.00;100729.50;5008054;28;20042;-71
2023/01/01 04:23:38;;;;;;;12.90;10.95;;;10.50;99.50;;;9.16;100.00;100738.19;5006646;28;20544;-71
2023/01/01 04:26:13;;;;;;;16.23;12.30;;;10.50;99.60;;;9.10;100.00;100734.75;5025611;28;20159;-71
2023/01/01 04:28:41;;;;;;;13.70;11.95;;;11.50;99.90;;;8.96;100.00;100735.78;5010827;28;20537;-71
2023/01/01 04:31:09;;;;;;;17.92;13.73;;;10.40;99.70;;;8.64;100.00;100732.63;4995205;28;20046;-71
2023/01/01 04:33:36;;;;;;;14.80;12.25;;;10.20;99.80;;;8.92;100.00;100734.97;5029743;28;20108;-71
2023/01/01 04:36:08;;;;;;;15.38;12.88;;;10.20;99.90;;;8.89;100.00;100728.88;5022931;28;20045;-71
2023/01/01 04:38:37;;;;;;;13.35;12.00;;;10.20;99.90;;;8.89;100.00;100736.75;4995562;28;20049;-72
2023/01/01 04:41:04;;;;;;;14.25;12.23;;;10.20;99.90;;;8.74;100.00;100738.66;4994487;28;20042;-71
2023/01/01 04:43:31;;;;;;;17.23;14.18;;;10.10;99.90;;;8.63;100.00;100751.00;5004312;28;20049;-72
2023/01/01 04:46:02;;;;;;;15.63;13.85;;;10.10;99.90;;;8.57;100.00;100744.06;5030494;28;20524;-71
2023/01/01 04:48:30;;;;;;;16.10;13.50;;;10.00;99.90;;;8.64;100.00;100748.38;5030307;28;20056;-71
2023/01/01 04:51:03;;;;;;;16.98;13.68;;;10.00;99.90;;;8.49;100.00;100748.47;5030325;28;20049;-71
2023/01/01 04:53:33;;;;;;;15.25;13.63;;;9.90;99.90;;;8.41;100.00;100759.03;5029929;28;20045;-71
2023/01/01 04:56:21;;;;;;;15.00;11.38;;;10.10;99.90;;;8.33;100.00;100752.97;5027797;28;20676;-71
2023/01/01 04:58:49;;;;;;;13.57;11.60;;;9.70;99.90;;;8.37;100.00;100757.34;4991220;28;20074;-72
2023/01/01 05:01:23;;;;;;;16.02;12.57;;;9.70;99.90;;;8.48;100.00;100752.00;5007299;28;20056;-71
2023/01/01 05:03:51;;;;;;;18.25;13.23;;;9.70;99.90;;;8.41;100.00;100753.81;5009915;28;20494;-72
2023/01/01 05:06:19;;;;;;;14.32;12.18;;;9.80;99.90;;;8.35;100.00;100752.09;5026651;28;20038;-71
2023/01/01 05:08:49;;;;;;;13.02;10.68;;;9.70;99.90;;;8.65;100.00;100750.09;5009931;28;20049;-71
2023/01/01 05:11:24;;;;;;;11.25;8.27;;;9.70;99.90;;;9.12;100.00;100762.72;5011539;28;20046;-71
2023/01/01 05:13:54;;;;;;;10.45;8.48;;;9.80;99.90;;;9.11;100.00;100765.38;5024224;28;20057;-71
2023/01/01 05:16:25;;;;;;;10.18;6.97;;;10.00;99.90;;;9.48;100.00;100765.78;5029412;28;20044;-71
2023/01/01 05:18:53;;;;;;;9.32;5.63;;;10.10;99.90;;;9.70;100.00;100767.25;5029672;28;20134;-71
2023/01/01 05:21:24;;;;;;;7.43;5.03;;;11.30;99.90;;;9.92;100.00;100768.69;5030426;28;20037;-71
2023/01/01 05:23:58;;;;;;;5.57;4.50;;;10.60;99.90;;;10.11;100.00;100764.91;5013576;28;20555;-72
2023/01/01 05:26:29;;;;;;;5.50;3.95;;;10.70;99.90;;;10.28;100.00;100780.41;5022089;28;20084;-72
2023/01/01 05:28:58;;;;;;;7.43;4.47;;;10.80;99.90;;;10.38;100.00;100768.88;5031399;28;20053;-72
2023/01/01 05:31:32;;;;;;;6.35;3.72;;;11.00;99.70;;;10.47;100.00;100768.72;5004059;28;20046;-72
2023/01/01 05:34:00;;;;;;;5.75;3.33;;;11.50;99.70;;;10.53;100.00;100773.00;5008453;28;20073;-72
2023/01/01 05:36:30;;;;;;;6.78;3.65;;;11.20;99.50;;;10.56;100.00;100777.38;5007060;28;20073;-72
2023/01/01 05:38:58;;;;;;;4.55;3.75;;;11.50;99.40;;;10.58;100.00;100780.84;5005020;28;20069;-71
2023/01/01 05:41:25;;;;;;;5.55;3.33;;;11.20;99.30;;;10.56;100.00;100778.22;4989691;28;20045;-71
2023/01/01 05:43:53;;;;;;;6.15;4.25;;;11.30;99.30;;;10.69;100.00;100770.13;5016301;28;20524;-72
2023/01/01 05:46:24;;;;;;;6.05;3.42;;;11.40;99.20;;;10.67;100.00;100770.13;5012971;28;20540;-71
2023/01/01 05:48:53;;;;;;;5.50;3.67;;;11.50;99.10;;;10.62;100.00;100777.25;5004931;28;20506;-71
2023/01/01 05:51:24;;;;;;;4.47;3.70;;;11.90;99.20;;;10.61;100.00;100788.66;4993149;28;20085;-72
2023/01/01 05:53:54;;;;;;;10.05;3.63;;;11.50;99.10;;;10.60;100.00;100792.19;5008908;28;20077;-71
2023/01/01 05:56:22;;;;;;;3.75;3.10;;;11.40;99.10;;;10.63;100.00;100792.13;4993223;28;20069;-71
2023/01/01 05:58:49;;;;;;;5.40;3.63;;;11.40;99.10;;;10.59;100.00;100791.31;5008906;28;20042;-71
2023/01/01 06:01:25;;;;;;;4.63;3.28;;;11.40;99.00;;;10.54;100.00;100787.06;5005889;28;20074;-71
2023/01/01 06:03:55;;;;;;;5.95;3.15;;;11.50;99.00;;;10.54;100.00;100793.16;4989160;28;20399;-72
2023/01/01 06:06:33;;;;;;;5.70;3.45;;;11.40;99.00;;;10.58;100.00;100791.34;5005425;28;20050;-72
2023/01/01 06:09:03;;;;;;;5.32;3.20;;;11.40;99.10;;;10.66;100.00;100801.75;5021714;28;20093;-71
2023/01/01 06:11:32;;;;;;;4.10;3.42;;;11.40;99.10;;;10.70;100.00;100795.53;5021547;28;20050;-71
2023/01/01 06:13:59;;;;;;;5.13;3.13;;;11.50;99.10;;;10.72;100.00;100792.00;5039443;28;20041;-71
2023/01/01 06:16:29;;;;;;;4.78;3.35;;;11.50;99.00;;;10.67;100.00;100796.44;5012092;28;20041;-71
2023/01/01 06:18:56;;;;;;;6.82;4.03;;;11.50;99.10;;;10.70;100.00;100793.78;5012267;28;20045;-71
2023/01/01 06:21:26;;;;;;;6.50;3.60;;;11.60;99.00;;;10.66;100.00;100799.97;5029194;28;20049;-71
2023/01/01 06:23:56;;;;;;;5.22;3.88;;;11.50;99.00;;;10.57;100.00;100792.25;5013911;28;20045;-72
2023/01/01 06:26:27;;;;;;;4.63;3.90;;;11.50;98.90;;;10.48;100.00;100796.75;5029387;28;20751;-71
2023/01/01 06:28:54;;;;;;;5.03;3.95;;;11.40;98.90;;;10.50;100.00;100808.13;5029040;28;20469;-71
2023/01/01 06:31:24;;;;;;;4.45;3.42;;;11.40;98.90;;;10.59;100.00;100812.38;5009715;28;20053;-72
2023/01/01 06:33:51;;;;;;;5.00;4.43;;;12.60;99.40;;;10.63;100.00;100808.81;5024450;28;20489;-71
2023/01/01 06:36:21;;;;;;;7.63;4.43;;;11.40;99.00;;;10.57;100.00;100806.25;5024689;28;20339;-71
2023/01/01 06:38:52;;;;;;;5.60;4.15;;;11.40;99.10;;;10.56;100.00;100804.53;4992200;28;20046;-71
2023/01/01 06:41:22;;;;;;;7.22;4.20;;;11.40;99.00;;;10.61;100.00;100807.09;5008536;28;20077;-72
2023/01/01 06:43:50;;;;;;;5.63;4.30;;;11.50;99.00;;;10.66;100.00;100805.22;5037768;28;20076;-71
2023/01/01 06:46:32;;;;;;;7.28;4.20;;;11.70;99.10;;;10.57;100.00;100815.94;5044444;28;20041;-71
2023/01/01 06:49:04;;;;;;;7.57;3.92;;;11.50;99.00;;;10.58;100.00;100826.41;5028916;28;20065;-71
2023/01/01 06:51:37;;;;;;;7.97;4.95;;;11.80;99.10;;;10.53;100.00;100832.66;5027718;28;20124;-71
2023/01/01 06:54:06;;;;;;;7.10;4.47;;;11.50;99.00;;;10.55;100.00;100839.63;5027535;28;20107;-71
2023/01/01 06:56:33;;;;;;;6.25;5.05;;;11.40;99.00;;;10.51;100.00;100835.31;5011467;28;20049;-71
2023/01/01 06:59:02;;;;;;;7.18;4.68;;;11.40;99.10;;;10.54;100.00;100842.31;5011582;28;20041;-71
2023/01/01 07:01:34;;;;;;;7.50;4.68;;;11.70;99.20;;;10.57;100.00;100834.34;5008181;28;20065;-72
2023/01/01 07:04:07;;;;;;;18.60;11.73;;;11.40;99.10;;;10.52;100.00;100838.81;4992125;28;20067;-71
2023/01/01 07:06:34;;;;;;;19.33;14.95;;;11.50;99.10;;;10.51;100.00;100840.59;5008137;28;20050;-72
2023/01/01 07:09:04;;;;;;;10.63;8.93;;;11.90;99.20;;;10.55;100.00;100844.03;5007507;28;20078;-71
2023/01/01 07:11:32;;;;;;;10.95;6.93;;;11.40;99.10;;;10.54;100.00;100845.78;5007809;28;20049;-72
2023/01/01 07:14:02;;;;;;;9.23;5.68;;;11.70;99.10;;;10.52;100.00;100857.22;5038455;28;20136;-72
2023/01/01 07:16:29;;;;;;;7.50;4.78;;;11.40;99.00;;;10.47;100.00;100860.81;5027650;28;20539;-71
2023/01/01 07:18:57;;;;;;;7.95;6.65;;;11.30;99.00;;;10.47;100.00;100858.16;5043780;28;20038;-71
2023/01/01 07:21:27;;;;;;;7.50;5.97;;;11.40;99.10;;;10.46;100.00;100869.59;5028359;28;20056;-71
2023/01/01 07:24:01;;;;;;;7.78;5.57;;;11.30;99.10;;;10.45;100.00;100877.50;5043839;28;20045;-71
2023/01/01 07:26:30;;;;;;;6.32;5.13;;;11.30;99.20;;;10.52;100.00;100878.25;5026988;28;20041;-71
2023/01/01 07:28:58;;;;;;;9.55;5.45;;;11.30;99.20;;;10.44;100.00;100876.63;5043973;28;20528;-71
2023/01/01 07:31:39;;;;;;;9.07;5.47;;;11.30;99.10;;;10.41;100.00;100888.97;4988872;28;20126;-71
2023/01/01 07:34:13;;;;;;;6.78;5.80;;;11.30;99.10;;;10.46;100.00;100888.00;4989971;28;20054;-71
2023/01/01 07:36:40;;;;;;;13.60;5.97;;;11.30;99.10;;;10.43;100.00;100890.69;4989086;28;20054;-71
2023/01/01 07:39:08;;;;;;;7.57;5.40;;;11.30;99.10;;;10.52;100.00;100891.41;4988180;28;20490;-71
2023/01/01 07:41:35;;;;;;;7.70;5.38;;;11.30;99.10;;;10.60;100.00;100905.34;4987875;28;20050;-71
2023/01/01 07:44:03;;;;;;;7.00;5.95;;;11.40;99.10;;;10.61;100.00;100907.06;4999902;28;20076;-72
2023/01/01 07:46:32;;;;;;;6.05;4.88;;;11.40;99.00;;;10.65;100.00;100908.75;5027085;28;20090;-71
2023/01/01 07:49:00;;;;;;;7.47;4.90;;;11.40;99.00;;;10.72;100.00;100915.69;5007764;28;20096;-71
2023/01/01 07:51:27;;;;;;;6.45;4.85;;;11.80;98.90;;;10.78;100.00;100923.47;5007466;28;20038;-71
2023/01/01 07:53:54;;;;;;;8.45;4.95;;;11.60;98.80;;;10.82;100.00;100926.03;5007048;28;20080;-71
2023/01/01 07:56:29;;;;;;;7.03;5.07;;;12.60;99.00;;;10.84;100.00;100930.41;5007546;28;20610;-72
2023/01/01 07:58:56;;;;;;;6.90;4.75;;;11.30;98.60;;;10.95;100.00;100939.91;5007646;28;20552;-71
2023/01/01 08:01:24;;;;;;;5.53;4.38;;;11.70;98.60;;;11.02;100.00;100931.00;5006403;28;20523;-71
2023/01/01 08:03:52;;;;;;;6.10;4.40;;;11.80;98.50;;;11.14;100.00;100924.63;5024145;28;20062;-71
2023/01/01 08:06:19;;;;;;;6.53;4.40;;;11.80;98.30;;;11.14;100.00;100933.41;4993348;28;20104;-71
2023/01/01 08:08:46;;;;;;;7.78;4.20;;;11.90;98.30;;;11.29;100.00;100934.06;4991975;28;20050;-71
2023/01/01 08:11:13;;;;;;;6.13;4.22;;;12.00;98.10;;;11.28;100.00;100935.81;5019515;28;20046;-71
2023/01/01 08:13:40;;;;;;;10.73;4.65;;;13.00;98.30;;;11.31;100.00;100935.75;5057762;28;20041;-72
2023/01/01 08:16:07;;;;;;;7.07;4.00;;;12.10;98.10;;;11.36;100.00;100938.28;5026851;28;20045;-72
2023/01/01 08:18:35;;;;;;;5.82;4.55;;;12.10;98.20;;;11.45;100.00;100942.53;4998359;28;20480;-72
2023/01/01 08:21:03;;;;;;;7.43;4.93;;;12.10;97.80;;;11.45;100.00;100934.63;5014451;28;20500;-71
2023/01/01 08:23:30;;;;;;;5.30;4.03;;;12.20;97.80;;;11.44;100.00;100935.53;5014335;28;20049;-71
2023/01/01 08:26:02;;;;;;;7.43;4.75;;;12.20;97.80;;;11.50;100.00;100940.69;5047331;28;20053;-71
2023/01/01 08:28:30;;;;;;;6.03;4.22;;;12.30;97.70;;;11.56;100.00;100945.00;5015063;28;20057;-71
2023/01/01 08:30:58;;;;;;;6.47;4.53;;;12.30;97.60;;;11.56;100.00;100939.72;5015424;28;20057;-72
2023/01/01 08:33:28;;;;;;;7.95;4.55;;;12.30;97.60;;;11.59;100.00;100932.59;4994896;28;20050;-72
2023/01/01 08:35:55;;;;;;;17.80;13.27;;;12.40;97.60;;;11.60;100.00;100938.75;5010502;28;20049;-71
2023/01/01 08:38:23;;;;;;;12.50;5.75;;;12.30;97.60;;;11.63;100.00;100934.31;5009991;28;20077;-71
2023/01/01 08:40:50;;;;;;;6.18;5.18;;;12.40;97.60;;;11.59;100.00;100935.22;5011927;28;20077;-71
2023/01/01 08:43:17;;;;;;;10.38;7.28;;;12.90;97.80;;;11.62;100.00;100934.31;5002652;28;20080;-71
2023/01/01 08:45:45;;;;;;;6.72;4.50;;;12.40;97.60;;;11.64;100.00;100935.16;5031745;28;20053;-72
2023/01/01 08:48:11;;;;;;;9.98;4.55;;;12.50;97.60;;;11.69;100.00;100928.00;5030213;28;20172;-72
2023/01/01 08:50:39;;;;;;;6.35;4.32;;;12.50;97.50;;;11.71;100.00;100928.88;5013703;28;20452;-71
2023/01/01 08:53:06;;;;;;;7.65;4.28;;;12.80;97.70;;;11.75;100.00;100929.66;5029895;28;20045;-71
2023/01/01 08:55:33;;;;;;;8.18;4.28;;;12.50;97.60;;;11.86;100.00;100934.72;5030019;28;20184;-71
2023/01/01 08:58:06;;;;;;;7.32;4.35;;;12.60;97.40;;;11.97;100.00;100940.63;5029891;28;20099;-71
2023/01/01 09:00:33;;;;;;;5.25;4.15;;;12.60;97.30;;;11.98;100.00;100936.25;5019629;28;20046;-71
2023/01/01 09:03:00;;;;;;;7.82;5.18;;;12.70;97.30;;;12.05;100.00;100935.25;5010025;28;20053;-71
2023/01/01 09:05:28;;;;;;;10.25;4.38;;;13.10;97.30;;;12.11;100.00;100943.03;5026405;28;20046;-72
2023/01/01 09:07:55;;;;;;;8.68;5.05;;;12.80;97.10;;;12.11;100.00;100948.31;5011740;28;20050;-71
2023/01/01 09:10:22;;;;;;;6.55;4.55;;;12.80;97.30;;;12.20;100.00;100952.53;5009882;28;20046;-71
2023/01/01 09:12:49;;;;;;;6.65;4.35;;;12.90;97.20;;;12.30;100.00;100953.19;4977327;28;20050;-71
2023/01/01 09:15:16;;;;;;;8.93;5.68;;;13.00;96.80;;;12.27;100.00;100953.28;4993726;28;20112;-71
2023/01/01 09:17:43;;;;;;;8.75;5.30;;;13.00;96.90;;;12.34;100.00;100957.50;5026084;28;20409;-71
2023/01/01 09:20:11;;;;;;;8.00;5.13;;;13.00;96.70;;;12.38;100.00;100955.66;5009683;28;20037;-71
2023/01/01 09:22:38;;;;;;;6.45;4.35;;;13.30;96.90;;;12.50;100.00;100965.06;5010088;28;20049;-69
2023/01/01 09:25:05;;;;;;;7.65;4.55;;;13.10;96.50;;;12.58;100.00;100963.13;4993602;28;20056;-69
2023/01/01 09:27:32;;;;;;;9.82;4.68;;;13.20;96.40;;;12.54;100.00;100972.88;5026248;28;20049;-70
2023/01/01 09:29:59;;;;;;;7.40;4.32;;;13.30;96.50;;;12.68;100.00;100980.47;4986326;28;20084;-70
2023/01/01 09:32:28;;;;;;;5.80;4.30;;;13.80;96.30;;;12.73;100.00;100978.63;4989842;28;20046;-70
2023/01/01 09:34:56;;;;;;;9.15;4.88;;;14.10;96.30;;;12.78;100.00;100978.50;4989326;28;20057;-70
2023/01/01 09:37:23;;;;;;;9.13;4.40;;;13.50;96.20;;;12.86;100.00;100980.94;4971878;28;20568;-70
2023/01/01 09:39:51;;;;;;;5.50;4.18;;;13.80;96.10;;;12.90;100.00;100977.34;5006007;28;20059;-70
2023/01/01 09:42:48;;;;;;;7.18;4.35;;;13.60;95.80;;;13.00;100.00;100984.13;4973697;28;20042;-70
2023/01/01 09:45:34;;;;;;;18.65;16.77;;;13.60;96.00;;;13.10;100.00;100997.13;4989836;28;20133;-70
2023/01/01 09:48:10;;;;;;;9.00;4.55;;;13.70;95.70;;;13.04;100.00;100991.09;4975436;28;20054;-70
2023/01/01 09:50:41;;;;;;;6.55;4.18;;;13.70;95.80;;;13.10;100.00;100999.78;4989881;28;20213;-70
2023/01/01 09:53:52;;;;;;;8.05;4.50;;;13.80;95.70;;;13.16;100.00;100994.31;5005633;28;20053;-70
2023/01/01 09:56:28;;;;;;;7.55;4.57;;;14.00;95.60;;;13.26;100.00;101000.25;5028158;28;20156;-70
2023/01/01 09:59:00;;;;;;;9.25;4.75;;;14.00;95.30;;;13.23;100.00;101002.97;4977797;28;20057;-70
2023/01/01 10:01:55;;;;;;;7.20;4.53;;;14.00;95.40;;;13.29;100.00;101002.84;5009746;28;20778;-70
2023/01/01 10:04:47;;;;;;;6.88;4.40;;;13.90;95.40;;;13.45;100.00;100996.28;5008478;28;20548;-70
2023/01/01 10:07:36;;;;;;;11.18;4.47;;;14.00;94.90;;;13.49;100.00;100993.53;4993137;28;20054;-70
2023/01/01 10:10:12;;;;;;;6.47;4.10;;;14.10;94.80;;;13.49;100.00;100993.53;5008962;28;20042;-70
2023/01/01 10:13:06;;;;;;;7.18;4.68;;;14.20;94.90;;;13.59;100.00;100997.69;5009758;28;20053;-70
2023/01/01 10:15:40;;;;;;;13.75;8.93;;;14.20;95.00;;;13.65;100.00;100988.72;5009137;28;20104;-70
2023/01/01 10:18:19;;;;;;;7.68;4.70;;;14.30;94.50;;;13.68;100.00;100991.28;5008931;28;20069;-70
2023/01/01 10:21:08;;;;;;;6.60;4.53;;;14.30;94.50;;;13.69;100.00;100979.81;4992814;28;20049;-70
2023/01/01 10:23:53;;;;;;;15.48;6.03;;;14.40;94.60;;;13.85;100.00;100986.41;5009508;28;20052;-70
2023/01/01 10:26:28;;;;;;;7.05;4.55;;;14.40;94.20;;;13.87;100.00;100974.00;4977725;28;20053;-70